createdAt,value
2023-02-07T00:00:56.288Z,0.4
2023-02-07T00:03:22.961Z,0.4
2023-02-07T00:05:49.629Z,0.4
2023-02-07T00:08:16.334Z,0.2
2023-02-07T00:10:43.009Z,0.1
2023-02-07T00:13:09.695Z,0.1
2023-02-07T00:15:36.392Z,-0.1
2023-02-07T00:18:03.077Z,-0.2
2023-02-07T00:20:28.320Z,0
2023-02-07T00:22:55.023Z,-0.1
2023-02-07T00:25:21.690Z,-0.1
2023-02-07T00:27:48.364Z,-0.2
2023-02-07T00:30:14.745Z,-0.3
2023-02-07T00:32:41.433Z,-0.3
2023-02-07T00:35:06.632Z,-0.4
2023-02-07T00:37:33.336Z,-0.5
2023-02-07T00:40:00.030Z,-0.7
2023-02-07T00:42:26.706Z,-0.7
2023-02-07T00:44:53.389Z,-0.6
2023-02-07T00:47:20.083Z,-0.5
2023-02-07T00:49:46.763Z,-0.5
2023-02-07T00:52:13.452Z,-0.6
2023-02-07T00:54:40.129Z,-0.7
2023-02-07T00:57:06.819Z,-0.7
2023-02-07T00:59:33.505Z,-0.6
2023-02-07T01:04:25.435Z,-0.4
2023-02-07T01:06:50.704Z,-0.4
2023-02-07T01:09:17.357Z,-0.3
2023-02-07T01:11:44.055Z,-0.3
2023-02-07T01:14:10.733Z,-0.3
2023-02-07T01:16:37.430Z,-0.4
2023-02-07T01:19:04.105Z,-0.4
2023-02-07T01:21:30.865Z,-0.5
2023-02-07T01:23:57.473Z,-0.5
2023-02-07T01:26:24.167Z,-0.4
2023-02-07T01:28:50.855Z,-0.5
2023-02-07T01:31:17.535Z,-0.5
2023-02-07T01:33:44.235Z,-0.5
2023-02-07T01:36:10.913Z,-0.6
2023-02-07T01:38:36.128Z,-0.7
2023-02-07T01:41:02.813Z,-0.7
2023-02-07T01:43:29.501Z,-0.8
2023-02-07T01:48:22.878Z,-0.9
2023-02-07T01:50:49.569Z,-0.9
2023-02-07T01:53:16.252Z,-0.9
2023-02-07T01:55:42.925Z,-0.9
2023-02-07T01:58:09.617Z,-0.7
2023-02-07T02:00:36.301Z,-0.7
2023-02-07T02:03:02.976Z,-0.6
2023-02-07T02:05:29.665Z,-0.6
2023-02-07T02:07:56.361Z,-0.7
2023-02-07T02:10:23.031Z,-0.7
2023-02-07T02:12:48.262Z,-0.8
2023-02-07T02:15:14.957Z,-0.8
2023-02-07T02:17:41.644Z,-0.8
2023-02-07T02:20:08.332Z,-0.9
2023-02-07T02:22:34.998Z,-0.9
2023-02-07T02:25:01.698Z,-0.9
2023-02-07T02:27:28.375Z,-0.8
2023-02-07T02:29:55.085Z,-0.8
2023-02-07T02:32:21.749Z,-0.9
2023-02-07T02:34:48.434Z,-0.9
2023-02-07T02:37:15.114Z,-0.9
2023-02-07T02:39:41.812Z,-1
2023-02-07T02:42:08.505Z,-1
2023-02-07T02:44:33.720Z,-1.1
2023-02-07T02:47:00.403Z,-1
2023-02-07T02:49:27.102Z,-1
2023-02-07T02:51:53.775Z,-1.1
2023-02-07T02:54:20.454Z,-1.2
2023-02-07T02:56:47.137Z,-1.3
2023-02-07T03:01:40.542Z,-1.5
2023-02-07T03:04:07.211Z,-1.5
2023-02-07T03:06:33.893Z,-1.6
2023-02-07T03:09:00.571Z,-1.7
2023-02-07T03:11:27.253Z,-1.7
2023-02-07T03:16:20.643Z,-1.9
2023-02-07T03:18:45.861Z,-1.9
2023-02-07T03:21:12.559Z,-1.9
2023-02-07T03:23:39.228Z,-2
2023-02-07T03:26:05.939Z,-2.1
2023-02-07T03:28:32.593Z,-2.1
2023-02-07T03:30:59.278Z,-2.2
2023-02-07T03:33:25.972Z,-2.3
2023-02-07T03:35:52.668Z,-2.3
2023-02-07T03:38:19.338Z,-2.4
2023-02-07T03:40:46.027Z,-2.4
2023-02-07T03:43:12.714Z,-2.5
2023-02-07T03:45:39.398Z,-2.5
2023-02-07T03:48:06.078Z,-2.6
2023-02-07T03:50:31.305Z,-2.5
2023-02-07T03:52:58.004Z,-2.6
2023-02-07T03:55:24.668Z,-2.6
2023-02-07T03:57:51.380Z,-2.7
2023-02-07T04:00:18.048Z,-2.6
2023-02-07T04:02:44.735Z,-2.5
2023-02-07T04:05:11.423Z,-2.6
2023-02-07T04:07:38.111Z,-2.6
2023-02-07T04:10:04.787Z,-2.6
2023-02-07T04:12:31.478Z,-2.7
2023-02-07T04:14:58.177Z,-2.5
2023-02-07T04:17:24.848Z,-2.6
2023-02-07T04:19:51.538Z,-2.3
2023-02-07T04:22:16.760Z,-2.4
2023-02-07T04:24:43.451Z,-2.5
2023-02-07T04:27:10.132Z,-2.5
2023-02-07T04:29:36.816Z,-2.7
2023-02-07T04:32:03.514Z,-2.8
2023-02-07T04:34:30.182Z,-2.8
2023-02-07T04:36:56.883Z,-2.8
2023-02-07T04:39:23.551Z,-2.9
2023-02-07T04:41:50.244Z,-3
2023-02-07T04:44:16.932Z,-3.1
2023-02-07T04:46:43.607Z,-3.2
2023-02-07T04:49:10.310Z,-3.2
2023-02-07T04:51:36.991Z,-3.2
2023-02-07T04:54:02.212Z,-3.1
2023-02-07T04:56:28.900Z,-3.1
2023-02-07T04:58:55.580Z,-3.2
2023-02-07T05:01:22.272Z,-3.3
2023-02-07T05:03:48.956Z,-3.4
2023-02-07T05:06:15.664Z,-3.6
2023-02-07T05:08:42.321Z,-3.6
2023-02-07T05:11:09.041Z,-3.6
2023-02-07T05:13:35.703Z,-3.6
2023-02-07T05:16:02.535Z,-3.7
2023-02-07T05:18:29.068Z,-3.7
2023-02-07T05:20:55.775Z,-3.7
2023-02-07T05:23:22.450Z,-3.8
2023-02-07T05:25:47.667Z,-3.9
2023-02-07T05:28:14.355Z,-4
2023-02-07T05:30:41.034Z,-4
2023-02-07T05:33:07.750Z,-4.1
2023-02-07T05:35:34.413Z,-4.2
2023-02-07T05:38:01.084Z,-4.4
2023-02-07T05:40:27.793Z,-4.5
2023-02-07T05:42:54.491Z,-4.5
2023-02-07T05:45:21.165Z,-4.5
2023-02-07T05:47:47.841Z,-4.5
2023-02-07T05:50:14.515Z,-4.5
2023-02-07T05:52:41.233Z,-4.6
2023-02-07T05:55:07.972Z,-4.5
2023-02-07T05:57:33.124Z,-4.6
2023-02-07T05:59:59.792Z,-4.6
2023-02-07T06:02:26.489Z,-4.6
2023-02-07T06:04:53.167Z,-4.6
2023-02-07T06:07:19.899Z,-4.6
2023-02-07T06:09:46.557Z,-4.7
2023-02-07T06:12:13.219Z,-4.7
2023-02-07T06:14:39.913Z,-4.7
2023-02-07T06:17:06.602Z,-4.7
2023-02-07T06:19:33.286Z,-4.6
2023-02-07T06:21:59.973Z,-4.7
2023-02-07T06:24:26.664Z,-4.6
2023-02-07T06:26:53.338Z,-4.6
2023-02-07T06:29:18.566Z,-4.5
2023-02-07T06:31:45.256Z,-4.7
2023-02-07T06:34:11.938Z,-4.7
2023-02-07T06:36:38.614Z,-4.9
2023-02-07T06:39:05.322Z,-4.9
2023-02-07T06:41:31.993Z,-4.9
2023-02-07T06:43:58.679Z,-4.9
2023-02-07T06:46:25.367Z,-4.9
2023-02-07T06:48:52.144Z,-4.9
2023-02-07T06:51:18.769Z,-5
2023-02-07T06:53:45.412Z,-5.1
2023-02-07T06:56:12.110Z,-5.1
2023-02-07T06:58:38.832Z,-5
2023-02-07T07:01:04.059Z,-5
2023-02-07T07:03:30.708Z,-5
2023-02-07T07:05:57.454Z,-5.1
2023-02-07T07:08:24.083Z,-5
2023-02-07T07:10:50.768Z,-4.6
2023-02-07T07:13:17.462Z,-4.1
2023-02-07T07:15:44.178Z,-3.5
2023-02-07T07:18:10.831Z,-3
2023-02-07T07:20:37.508Z,-2.5
2023-02-07T07:25:30.875Z,-0.1
2023-02-07T07:27:57.562Z,1
2023-02-07T07:30:24.319Z,1.7
2023-02-07T07:32:49.635Z,2.5
2023-02-07T07:35:16.195Z,3.2
2023-02-07T07:37:43.024Z,3.8
2023-02-07T07:40:09.740Z,3.9
2023-02-07T07:42:36.353Z,4.5
2023-02-07T07:45:02.954Z,5.1
2023-02-07T07:47:29.724Z,6
2023-02-07T07:49:56.279Z,6.7
2023-02-07T07:52:23.097Z,6.9
2023-02-07T07:54:49.836Z,7.2
2023-02-07T07:57:16.342Z,7.6
2023-02-07T07:59:43.002Z,8
2023-02-07T08:02:09.854Z,8.1
2023-02-07T08:04:35.043Z,8.6
2023-02-07T08:07:01.628Z,8.5
2023-02-07T08:09:28.298Z,8.3
2023-02-07T08:11:55.007Z,8.1
2023-02-07T08:14:21.664Z,8.2
2023-02-07T08:16:48.341Z,8.8
2023-02-07T08:21:41.867Z,9.2
2023-02-07T08:24:08.561Z,9.1
2023-02-07T08:26:35.099Z,9.4
2023-02-07T08:29:01.781Z,10.3
2023-02-07T08:31:28.480Z,9.8
2023-02-07T08:33:55.157Z,9.7
2023-02-07T08:36:20.379Z,9.6
2023-02-07T08:38:47.061Z,10.1
2023-02-07T08:41:13.975Z,10.4
2023-02-07T08:43:40.605Z,10.6
2023-02-07T08:46:07.279Z,10.1
2023-02-07T08:48:33.961Z,9.6
2023-02-07T08:51:00.506Z,9.3
2023-02-07T08:53:27.184Z,10
2023-02-07T08:55:53.868Z,11
2023-02-07T08:58:20.745Z,10
2023-02-07T09:00:47.424Z,9.7
2023-02-07T09:03:13.920Z,10.3
2023-02-07T09:05:40.630Z,10.1
2023-02-07T09:08:05.954Z,10.1
2023-02-07T09:10:32.660Z,10.6
2023-02-07T09:12:59.305Z,11.1
2023-02-07T09:15:26.009Z,10.9
2023-02-07T09:17:51.301Z,10.4
2023-02-07T09:20:17.978Z,10
2023-02-07T09:22:44.642Z,10.4
2023-02-07T09:25:11.265Z,10.7
2023-02-07T09:27:37.992Z,11.4
2023-02-07T09:30:04.651Z,11.4
2023-02-07T09:32:31.384Z,10.8
2023-02-07T09:34:58.103Z,10.7
2023-02-07T09:39:51.355Z,10.7
2023-02-07T09:42:18.125Z,8.9
2023-02-07T09:44:44.879Z,8.8
2023-02-07T09:47:11.397Z,8.8
2023-02-07T09:52:03.252Z,9.4
2023-02-07T09:54:29.932Z,9.6
2023-02-07T09:56:56.851Z,9.6
2023-02-07T09:59:23.457Z,9.1
2023-02-07T10:01:50.236Z,8.7
2023-02-07T10:04:16.833Z,7.3
2023-02-07T10:06:43.459Z,6.2
2023-02-07T10:09:10.063Z,5
2023-02-07T10:11:36.842Z,4.2
2023-02-07T10:14:03.415Z,3.9
2023-02-07T10:16:30.277Z,3.6
2023-02-07T10:21:23.692Z,3.7
2023-02-07T10:26:15.621Z,3.2
2023-02-07T10:28:40.815Z,3.1
2023-02-07T10:33:34.199Z,3.4
2023-02-07T10:35:59.291Z,3.6
2023-02-07T10:38:26.132Z,3.7
2023-02-07T10:40:52.810Z,3.7
2023-02-07T10:43:19.441Z,3.7
2023-02-07T10:45:46.138Z,3.8
2023-02-07T10:48:12.841Z,3.9
2023-02-07T10:53:06.213Z,3.8
2023-02-07T10:57:59.600Z,4
2023-02-07T11:00:26.229Z,4.1
2023-02-07T11:05:18.112Z,4
2023-02-07T11:10:10.202Z,4.1
2023-02-07T11:15:02.138Z,4.2
2023-02-07T11:17:27.292Z,4.3
2023-02-07T11:19:53.854Z,4.4
2023-02-07T11:22:20.699Z,4.3
2023-02-07T11:24:47.360Z,4.2
2023-02-07T11:29:40.756Z,4.3
2023-02-07T11:32:05.814Z,4.3
2023-02-07T11:34:32.658Z,4.5
2023-02-07T11:39:25.870Z,4.7
2023-02-07T11:41:52.714Z,4.7
2023-02-07T11:44:19.346Z,4.5
2023-02-07T11:46:46.091Z,4.5
2023-02-07T11:49:12.787Z,4.5
2023-02-07T11:51:39.444Z,4.6
2023-02-07T11:54:05.978Z,4.7
2023-02-07T11:58:59.533Z,4.8
2023-02-07T12:01:26.214Z,4.7
2023-02-07T12:03:51.400Z,4.7
2023-02-07T12:06:18.131Z,4.7
2023-02-07T12:08:44.802Z,4.7
2023-02-07T12:11:11.322Z,4.7
2023-02-07T12:13:38.003Z,4.8
2023-02-07T12:16:04.858Z,4.7
2023-02-07T12:18:31.511Z,4.8
2023-02-07T12:20:58.071Z,4.7
2023-02-07T12:23:24.911Z,4.8
2023-02-07T12:28:18.273Z,5
2023-02-07T12:30:44.911Z,5.1
2023-02-07T12:33:11.701Z,5
2023-02-07T12:38:04.985Z,5.1
2023-02-07T12:40:31.702Z,5.1
2023-02-07T12:42:58.380Z,4.9
2023-02-07T12:45:23.615Z,5
2023-02-07T12:47:50.209Z,5.1
2023-02-07T12:50:16.836Z,5.1
2023-02-07T12:52:43.540Z,5.1
2023-02-07T12:55:10.356Z,5.1
2023-02-07T12:57:37.037Z,5.2
2023-02-07T13:02:30.247Z,5.3
2023-02-07T13:04:57.103Z,5.3
2023-02-07T13:07:23.784Z,5.2
2023-02-07T13:09:50.424Z,5.2
2023-02-07T13:12:16.975Z,5.1
2023-02-07T13:14:43.843Z,5.2
2023-02-07T13:17:08.893Z,5.2
2023-02-07T13:22:02.434Z,5.1
2023-02-07T13:24:29.042Z,5.1
2023-02-07T13:26:55.797Z,5.1
2023-02-07T13:29:22.319Z,5.1
2023-02-07T13:31:49.047Z,5.2
2023-02-07T13:34:15.856Z,5.2
2023-02-07T13:36:42.631Z,5.2
2023-02-07T13:39:09.205Z,5.4
2023-02-07T13:41:35.950Z,5.5
2023-02-07T13:44:02.548Z,5.4
2023-02-07T13:46:29.254Z,5.4
2023-02-07T13:48:54.542Z,5.4
2023-02-07T13:51:21.204Z,5.4
2023-02-07T13:53:47.872Z,5.4
2023-02-07T13:56:14.417Z,5.4
2023-02-07T14:01:08.016Z,5.4
2023-02-07T14:03:34.612Z,5.4
2023-02-07T14:06:01.317Z,5.4
2023-02-07T14:08:27.976Z,5.4
2023-02-07T14:10:54.506Z,5.4
2023-02-07T14:13:21.195Z,5.5
2023-02-07T14:15:47.970Z,5.5
2023-02-07T14:18:14.694Z,5.5
2023-02-07T14:20:39.846Z,5.5
2023-02-07T14:23:06.619Z,5.5
2023-02-07T14:25:33.558Z,5.5
2023-02-07T14:27:59.838Z,5.5
2023-02-07T14:30:26.523Z,5.5
2023-02-07T14:32:53.375Z,5.5
2023-02-07T14:35:20.096Z,5.5
2023-02-07T14:37:46.748Z,5.6
2023-02-07T14:40:13.446Z,5.6
2023-02-07T14:42:40.109Z,5.6
2023-02-07T14:45:06.768Z,5.5
2023-02-07T14:47:31.887Z,5.5
2023-02-07T14:49:57.288Z,5.5
2023-02-07T14:52:23.930Z,5.4
2023-02-07T14:54:50.603Z,5.4
2023-02-07T14:57:17.166Z,5.3
2023-02-07T14:59:43.923Z,5.2
2023-02-07T15:02:10.638Z,5.2
2023-02-07T15:04:37.219Z,5.1
2023-02-07T15:07:04.098Z,5.1
2023-02-07T15:09:30.773Z,5
2023-02-07T15:11:57.404Z,4.9
2023-02-07T15:14:22.628Z,4.8
2023-02-07T15:16:49.301Z,4.7
2023-02-07T15:19:14.619Z,4.5
2023-02-07T15:21:41.185Z,4.5
2023-02-07T15:24:07.806Z,4.4
2023-02-07T15:26:34.657Z,4.3
2023-02-07T15:29:01.338Z,4.2
2023-02-07T15:31:27.971Z,4.1
2023-02-07T15:33:54.692Z,4.1
2023-02-07T15:36:21.404Z,4
2023-02-07T15:38:48.100Z,3.9
2023-02-07T15:41:14.598Z,3.8
2023-02-07T15:43:41.429Z,3.8
2023-02-07T15:46:07.967Z,3.7
2023-02-07T15:48:34.674Z,3.6
2023-02-07T15:51:01.518Z,3.6
2023-02-07T15:53:28.186Z,3.5
2023-02-07T15:55:53.373Z,3.5
2023-02-07T15:58:20.087Z,3.6
2023-02-07T16:00:46.861Z,3.5
2023-02-07T16:03:13.519Z,3.4
2023-02-07T16:05:40.129Z,3.3
2023-02-07T16:08:06.844Z,3.2
2023-02-07T16:10:33.507Z,3.1
2023-02-07T16:13:00.210Z,3
2023-02-07T16:15:26.966Z,2.9
2023-02-07T16:17:53.407Z,2.8
2023-02-07T16:20:20.273Z,2.7
2023-02-07T16:22:46.896Z,2.7
2023-02-07T16:27:40.333Z,2.6
2023-02-07T16:30:05.521Z,2.5
2023-02-07T16:32:32.200Z,2.4
2023-02-07T16:34:58.946Z,2.2
2023-02-07T16:37:25.568Z,2.1
2023-02-07T16:39:52.268Z,2
2023-02-07T16:42:18.823Z,2
2023-02-07T16:44:45.666Z,2.1
2023-02-07T16:47:12.371Z,2
2023-02-07T16:49:39.045Z,2
2023-02-07T16:52:05.724Z,1.9
2023-02-07T16:54:32.385Z,1.9
2023-02-07T16:56:58.907Z,1.9
2023-02-07T16:59:25.815Z,1.8
2023-02-07T17:01:51.061Z,1.8
2023-02-07T17:04:17.678Z,1.7
2023-02-07T17:06:44.364Z,1.7
2023-02-07T17:09:11.045Z,1.7
2023-02-07T17:11:37.730Z,1.7
2023-02-07T17:14:04.404Z,1.6
2023-02-07T17:16:31.095Z,1.5
2023-02-07T17:18:57.766Z,1.4
2023-02-07T17:21:24.294Z,1.4
2023-02-07T17:23:51.095Z,1.4
2023-02-07T17:26:17.826Z,1.3
2023-02-07T17:28:43.006Z,1.1
2023-02-07T17:31:09.718Z,1
2023-02-07T17:33:36.403Z,0.9
2023-02-07T17:36:03.021Z,0.9
2023-02-07T17:38:29.647Z,0.7
2023-02-07T17:40:56.794Z,0.7
2023-02-07T17:43:23.251Z,0.5
2023-02-07T17:45:49.873Z,0.5
2023-02-07T17:48:16.558Z,0.7
2023-02-07T17:50:43.219Z,0.7
2023-02-07T17:53:09.762Z,0.6
2023-02-07T17:55:36.606Z,0.6
2023-02-07T17:58:03.165Z,0.6
2023-02-07T18:00:29.985Z,0.5
2023-02-07T18:02:55.035Z,0.4
2023-02-07T18:05:21.732Z,0.3
2023-02-07T18:07:48.573Z,0.1
2023-02-07T18:10:15.195Z,-0.1
2023-02-07T18:12:41.966Z,-0.2
2023-02-07T18:15:08.613Z,-0.3
2023-02-07T18:17:35.297Z,-0.5
2023-02-07T18:20:02.024Z,-0.7
2023-02-07T18:22:28.628Z,-0.8
2023-02-07T18:24:55.319Z,-0.8
2023-02-07T18:29:48.765Z,-1.1
2023-02-07T18:32:15.421Z,-1.2
2023-02-07T18:37:08.711Z,-1.3
2023-02-07T18:39:34.132Z,-1.5
2023-02-07T18:44:27.381Z,-1.6
2023-02-07T18:46:53.952Z,-1.7
2023-02-07T18:49:19.249Z,-1.8
2023-02-07T18:51:44.400Z,-1.8
2023-02-07T18:54:11.070Z,-1.9
2023-02-07T18:59:04.642Z,-2
2023-02-07T19:01:31.133Z,-2
2023-02-07T19:03:57.998Z,-2.1
2023-02-07T19:06:24.610Z,-2.2
2023-02-07T19:08:51.191Z,-2.2
2023-02-07T19:13:44.714Z,-2.2
2023-02-07T19:16:11.284Z,-2.2
2023-02-07T19:18:38.100Z,-2.2
2023-02-07T19:21:03.338Z,-2.2
2023-02-07T19:23:30.025Z,-2.3
2023-02-07T19:28:21.936Z,-2.4
2023-02-07T19:30:48.510Z,-2.5
2023-02-07T19:33:15.279Z,-2.5
2023-02-07T19:35:41.954Z,-2.6
2023-02-07T19:38:08.668Z,-2.7
2023-02-07T19:43:01.971Z,-2.7
2023-02-07T19:45:28.701Z,-2.7
2023-02-07T19:47:55.365Z,-2.8
2023-02-07T19:50:21.947Z,-2.9
2023-02-07T19:52:48.701Z,-2.9
2023-02-07T19:57:42.120Z,-2.9
2023-02-07T20:00:07.301Z,-2.9
2023-02-07T20:02:33.993Z,-2.8
2023-02-07T20:05:00.592Z,-2.9
2023-02-07T20:07:27.382Z,-2.9
2023-02-07T20:12:20.815Z,-3.1
2023-02-07T20:14:47.496Z,-3.1
2023-02-07T20:17:14.224Z,-3.2
2023-02-07T20:19:40.698Z,-3.2
2023-02-07T20:22:07.473Z,-3.2
2023-02-07T20:27:00.969Z,-3.4
2023-02-07T20:29:27.664Z,-3.4
2023-02-07T20:31:52.864Z,-3.5
2023-02-07T20:34:19.519Z,-3.4
2023-02-07T20:36:46.187Z,-3.4
2023-02-07T20:41:39.419Z,-3.4
2023-02-07T20:44:06.140Z,-3.4
2023-02-07T20:46:33.006Z,-3.5
2023-02-07T20:48:59.602Z,-3.4
2023-02-07T20:51:26.284Z,-3.6
2023-02-07T20:56:19.691Z,-3.8
2023-02-07T20:58:46.215Z,-3.8
2023-02-07T21:01:13.010Z,-4
2023-02-07T21:03:38.211Z,-4
2023-02-07T21:06:04.990Z,-4
2023-02-07T21:10:58.180Z,-3.9
2023-02-07T21:13:24.970Z,-3.8
2023-02-07T21:15:51.568Z,-3.8
2023-02-07T21:18:18.238Z,-3.9
2023-02-07T21:20:44.951Z,-3.9
2023-02-07T21:23:11.745Z,-4
2023-02-07T21:25:38.452Z,-4.1
2023-02-07T21:28:05.028Z,-4.1
2023-02-07T21:30:31.652Z,-4.2
2023-02-07T21:32:58.512Z,-4.4
2023-02-07T21:35:23.567Z,-4.4
2023-02-07T21:37:50.284Z,-4.5
2023-02-07T21:40:17.097Z,-4.5
2023-02-07T21:42:43.620Z,-4.5
2023-02-07T21:45:10.311Z,-4.5
2023-02-07T21:47:35.668Z,-4.5
2023-02-07T21:50:00.974Z,-4.6
2023-02-07T21:52:27.612Z,-4.6
2023-02-07T21:54:54.158Z,-4.7
2023-02-07T21:57:20.967Z,-4.7
2023-02-07T21:59:47.697Z,-4.7
2023-02-07T22:02:14.221Z,-4.8
2023-02-07T22:04:40.998Z,-4.8
2023-02-07T22:07:07.599Z,-4.8
2023-02-07T22:09:34.291Z,-4.8
2023-02-07T22:12:01.085Z,-4.9
2023-02-07T22:14:26.239Z,-4.9
2023-02-07T22:16:51.442Z,-5
2023-02-07T22:19:18.114Z,-5
2023-02-07T22:21:44.966Z,-5
2023-02-07T22:24:11.590Z,-5
2023-02-07T22:26:38.202Z,-5
2023-02-07T22:29:05.023Z,-5
2023-02-07T22:31:31.705Z,-5.1
2023-02-07T22:33:58.421Z,-5.1
2023-02-07T22:36:25.140Z,-5
2023-02-07T22:38:51.784Z,-4.9
2023-02-07T22:41:18.423Z,-4.8
2023-02-07T22:43:45.148Z,-4.9
2023-02-07T22:46:11.870Z,-5
2023-02-07T22:48:37.045Z,-5
2023-02-07T22:51:03.600Z,-5.1
2023-02-07T22:53:30.488Z,-5.1
2023-02-07T22:55:57.072Z,-5
2023-02-07T22:58:23.684Z,-5.1
2023-02-07T23:00:50.481Z,-5.1
2023-02-07T23:03:17.216Z,-5.2
2023-02-07T23:05:43.689Z,-5.2
2023-02-07T23:08:10.490Z,-5.3
2023-02-07T23:10:37.166Z,-5.3
2023-02-07T23:13:03.757Z,-5.4
2023-02-07T23:15:30.527Z,-5.5
2023-02-07T23:17:57.118Z,-5.5
2023-02-07T23:20:22.519Z,-5.4
2023-02-07T23:22:49.164Z,-5.4
2023-02-07T23:25:15.865Z,-5.4
2023-02-07T23:27:42.527Z,-5.4
2023-02-07T23:30:09.132Z,-5.4
2023-02-07T23:32:35.949Z,-5.4
2023-02-07T23:35:02.607Z,-5.5
2023-02-07T23:37:29.128Z,-5.5
2023-02-07T23:39:55.861Z,-5.5
2023-02-07T23:42:22.501Z,-5.6
2023-02-07T23:44:49.204Z,-5.6
2023-02-07T23:47:15.923Z,-5.6
2023-02-07T23:49:42.728Z,-5.7
2023-02-07T23:52:07.792Z,-5.7
2023-02-07T23:54:34.665Z,-5.6
2023-02-07T23:57:01.300Z,-5.6
2023-02-07T23:59:28.055Z,-5.6
